createdAt,value
2023-02-13T00:01:16.398Z,22.80
2023-02-13T00:03:45.995Z,23.47
2023-02-13T00:06:14.070Z,22.07
2023-02-13T00:08:42.369Z,22.90
2023-02-13T00:11:11.038Z,25.20
2023-02-13T00:13:39.114Z,20.20
2023-02-13T00:16:08.243Z,22.30
2023-02-13T00:18:39.857Z,22.73
2023-02-13T00:21:11.650Z,21.83
2023-02-13T00:23:40.774Z,21.93
2023-02-13T00:26:10.952Z,22.10
2023-02-13T00:28:40.848Z,22.47
2023-02-13T00:31:10.590Z,22.23
2023-02-13T00:33:39.689Z,20.93
2023-02-13T00:36:12.009Z,21.23
2023-02-13T00:38:41.396Z,23.13
2023-02-13T00:41:10.669Z,19.80
2023-02-13T00:43:39.215Z,26.10
2023-02-13T00:46:07.758Z,26.07
2023-02-13T00:48:36.703Z,29.40
2023-02-13T00:51:06.258Z,24.53
2023-02-13T00:53:36.734Z,22.20
2023-02-13T00:56:05.882Z,22.00
2023-02-13T00:58:34.511Z,23.53
2023-02-13T01:01:02.723Z,24.10
2023-02-13T01:03:31.013Z,28.93
2023-02-13T01:05:59.229Z,30.47
2023-02-13T01:08:28.610Z,27.90
2023-02-13T01:10:58.850Z,26.70
2023-02-13T01:13:27.545Z,28.10
2023-02-13T01:15:55.904Z,25.60
2023-02-13T01:18:24.149Z,22.47
2023-02-13T01:21:00.384Z,28.27
2023-02-13T01:23:39.854Z,30.17
2023-02-13T01:26:12.482Z,24.47
2023-02-13T01:28:40.595Z,24.37
2023-02-13T01:31:08.750Z,25.77
2023-02-13T01:33:37.263Z,23.50
2023-02-13T01:36:08.859Z,26.57
2023-02-13T01:38:37.077Z,25.33
2023-02-13T01:41:05.521Z,26.33
2023-02-13T01:43:51.482Z,25.10
2023-02-13T01:46:26.250Z,27.43
2023-02-13T01:48:59.787Z,26.53
2023-02-13T01:51:32.492Z,28.80
2023-02-13T01:54:03.930Z,26.43
2023-02-13T01:56:38.906Z,26.27
2023-02-13T01:59:13.118Z,23.43
2023-02-13T02:01:41.599Z,27.43
2023-02-13T02:04:14.761Z,25.43
2023-02-13T02:06:45.385Z,27.17
2023-02-13T02:09:17.147Z,28.13
2023-02-13T02:11:53.877Z,25.57
2023-02-13T02:14:23.749Z,28.57
2023-02-13T02:16:51.805Z,25.60
2023-02-13T02:19:32.907Z,27.40
2023-02-13T02:22:42.577Z,25.73
2023-02-13T02:25:52.057Z,27.43
2023-02-13T02:28:41.334Z,26.30
2023-02-13T02:31:42.450Z,28.30
2023-02-13T02:34:22.422Z,28.73
2023-02-13T02:37:07.833Z,26.60
2023-02-13T02:39:46.610Z,28.03
2023-02-13T02:42:30.408Z,27.33
2023-02-13T02:45:07.184Z,29.57
2023-02-13T02:48:00.729Z,30.57
2023-02-13T02:50:37.575Z,27.88
2023-02-13T02:53:13.576Z,32.85
2023-02-13T02:55:51.326Z,35.97
2023-02-13T02:58:41.170Z,35.10
2023-02-13T03:01:31.826Z,32.93
2023-02-13T03:04:19.341Z,31.07
2023-02-13T03:06:54.167Z,33.13
2023-02-13T03:09:44.044Z,34.77
2023-02-13T03:12:34.327Z,33.97
2023-02-13T03:15:02.488Z,36.88
2023-02-13T03:17:48.379Z,35.73
2023-02-13T03:20:53.421Z,34.23
2023-02-13T03:23:33.897Z,37.63
2023-02-13T03:26:19.309Z,39.33
2023-02-13T03:29:16.670Z,39.73
2023-02-13T03:32:01.712Z,37.63
2023-02-13T03:34:54.240Z,48.85
2023-02-13T03:37:49.917Z,47.40
2023-02-13T03:40:25.518Z,42.70
2023-02-13T03:42:58.335Z,43.47
2023-02-13T03:45:48.824Z,42.43
2023-02-13T03:48:44.616Z,42.83
2023-02-13T03:51:16.310Z,41.17
2023-02-13T03:53:49.162Z,44.83
2023-02-13T03:56:40.358Z,40.70
2023-02-13T03:59:18.910Z,40.37
2023-02-13T04:01:57.183Z,39.87
2023-02-13T04:04:33.960Z,40.67
2023-02-13T04:07:05.156Z,44.87
2023-02-13T04:09:38.090Z,43.73
2023-02-13T04:12:17.992Z,37.47
2023-02-13T04:14:52.112Z,43.17
2023-02-13T04:17:25.437Z,46.27
2023-02-13T04:19:54.229Z,42.93
2023-02-13T04:22:22.449Z,49.80
2023-02-13T04:24:50.650Z,41.87
2023-02-13T04:27:20.338Z,43.33
2023-02-13T04:29:49.192Z,41.40
2023-02-13T04:32:17.515Z,39.30
2023-02-13T04:34:45.661Z,39.63
2023-02-13T04:37:13.842Z,44.67
2023-02-13T04:39:41.953Z,41.90
2023-02-13T04:42:10.159Z,45.47
2023-02-13T04:44:39.929Z,56.97
2023-02-13T04:47:08.097Z,50.87
2023-02-13T04:49:36.286Z,50.80
2023-02-13T04:52:04.631Z,49.97
2023-02-13T04:54:32.754Z,54.70
2023-02-13T04:57:00.903Z,54.67
2023-02-13T04:59:29.033Z,52.23
2023-02-13T05:01:59.376Z,49.00
2023-02-13T05:04:29.038Z,50.60
2023-02-13T05:06:57.284Z,48.00
2023-02-13T05:09:25.406Z,48.80
2023-02-13T05:11:54.349Z,52.07
2023-02-13T05:14:25.796Z,56.93
2023-02-13T05:16:53.836Z,50.63
2023-02-13T05:19:23.453Z,47.97
2023-02-13T05:22:09.168Z,47.17
2023-02-13T05:24:37.291Z,49.73
2023-02-13T05:27:05.640Z,53.70
2023-02-13T05:29:33.684Z,56.53
2023-02-13T05:32:01.937Z,50.83
2023-02-13T05:34:31.760Z,47.05
2023-02-13T05:37:00.903Z,54.05
2023-02-13T05:39:29.054Z,52.13
2023-02-13T05:41:57.216Z,58.65
2023-02-13T05:44:25.259Z,49.60
2023-02-13T05:46:54.027Z,53.83
2023-02-13T05:49:23.024Z,48.07
2023-02-13T05:51:53.353Z,48.37
2023-02-13T05:54:21.642Z,49.87
2023-02-13T05:56:49.945Z,47.23
2023-02-13T05:59:18.326Z,51.93
2023-02-13T06:01:48.844Z,45.60
2023-02-13T06:04:17.169Z,47.80
2023-02-13T06:06:45.676Z,48.20
2023-02-13T06:09:15.845Z,47.80
2023-02-13T06:11:43.988Z,45.03
2023-02-13T06:14:14.357Z,52.37
2023-02-13T06:16:42.667Z,53.53
2023-02-13T06:19:10.786Z,49.87
2023-02-13T06:21:39.025Z,53.43
2023-02-13T06:24:09.093Z,51.20
2023-02-13T06:26:38.777Z,53.77
2023-02-13T06:29:07.008Z,52.53
2023-02-13T06:31:35.243Z,48.97
2023-02-13T06:34:03.720Z,51.27
2023-02-13T06:36:32.411Z,55.97
2023-02-13T06:39:00.854Z,47.23
2023-02-13T06:41:29.076Z,52.60
2023-02-13T06:43:58.686Z,50.60
2023-02-13T06:46:26.941Z,60.27
2023-02-13T06:48:55.239Z,50.43
2023-02-13T06:51:23.392Z,51.57
2023-02-13T06:53:51.452Z,45.70
2023-02-13T06:56:19.547Z,51.40
2023-02-13T06:58:47.781Z,45.77
2023-02-13T07:01:17.477Z,49.47
2023-02-13T07:03:45.833Z,51.83
2023-02-13T07:06:19.213Z,45.37
2023-02-13T07:08:47.929Z,43.77
2023-02-13T07:11:20.920Z,46.03
2023-02-13T07:13:49.683Z,55.10
2023-02-13T07:16:20.026Z,52.03
2023-02-13T07:18:48.181Z,54.53
2023-02-13T07:21:16.662Z,54.20
2023-02-13T07:23:45.008Z,54.70
2023-02-13T07:26:13.102Z,52.03
2023-02-13T07:28:41.277Z,46.93
2023-02-13T07:31:09.508Z,49.83
2023-02-13T07:33:39.973Z,51.90
2023-02-13T07:36:09.622Z,51.67
2023-02-13T07:38:37.733Z,45.73
2023-02-13T07:41:06.186Z,52.83
2023-02-13T07:43:34.435Z,50.87
2023-02-13T07:46:04.246Z,48.23
2023-02-13T07:48:32.323Z,42.53
2023-02-13T07:51:04.329Z,49.57
2023-02-13T07:53:32.620Z,39.37
2023-02-13T07:56:01.001Z,44.87
2023-02-13T07:58:29.557Z,48.77
2023-02-13T08:00:57.674Z,40.40
2023-02-13T08:03:25.843Z,43.73
2023-02-13T08:05:53.980Z,39.47
2023-02-13T08:08:24.057Z,41.67
2023-02-13T08:11:10.294Z,38.60
2023-02-13T08:13:38.961Z,41.83
2023-02-13T08:16:07.365Z,41.00
2023-02-13T08:18:36.012Z,34.20
2023-02-13T08:21:04.374Z,38.08
2023-02-13T08:23:34.700Z,39.53
2023-02-13T08:26:04.036Z,35.87
2023-02-13T08:28:32.325Z,41.73
2023-02-13T08:31:00.607Z,34.57
2023-02-13T08:33:29.080Z,39.73
2023-02-13T08:35:57.374Z,34.50
2023-02-13T08:38:26.407Z,35.67
2023-02-13T08:40:58.733Z,38.57
2023-02-13T08:43:27.212Z,41.40
2023-02-13T08:45:55.820Z,38.83
2023-02-13T08:48:24.615Z,39.87
2023-02-13T08:50:52.718Z,40.73
2023-02-13T08:53:22.439Z,37.47
2023-02-13T08:55:56.831Z,40.00
2023-02-13T08:58:25.970Z,41.77
2023-02-13T09:00:55.903Z,43.73
2023-02-13T09:03:24.415Z,42.00
2023-02-13T09:05:52.556Z,42.87
2023-02-13T09:08:20.875Z,47.10
2023-02-13T09:10:56.673Z,40.50
2023-02-13T09:13:26.240Z,42.53
2023-02-13T09:15:54.290Z,45.37
2023-02-13T09:18:22.452Z,39.47
2023-02-13T09:20:50.623Z,52.87
2023-02-13T09:23:18.714Z,40.70
2023-02-13T09:25:46.844Z,42.80
2023-02-13T09:28:15.227Z,40.43
2023-02-13T09:30:44.802Z,47.03
2023-02-13T09:33:13.136Z,42.70
2023-02-13T09:35:43.552Z,40.63
2023-02-13T09:38:12.324Z,42.87
2023-02-13T09:40:49.120Z,44.50
2023-02-13T09:43:25.342Z,41.57
2023-02-13T09:45:57.411Z,45.07
2023-02-13T09:48:30.663Z,42.50
2023-02-13T09:51:00.109Z,45.43
2023-02-13T09:53:36.563Z,36.90
2023-02-13T09:56:12.281Z,48.63
2023-02-13T09:58:46.190Z,42.67
2023-02-13T10:01:34.315Z,44.73
2023-02-13T10:04:32.518Z,44.33
2023-02-13T10:07:16.058Z,39.90
2023-02-13T10:09:56.537Z,44.73
2023-02-13T10:12:55.965Z,41.03
2023-02-13T10:15:32.705Z,40.87
2023-02-13T10:18:06.524Z,40.70
2023-02-13T10:20:41.692Z,36.63
2023-02-13T10:23:21.228Z,39.53
2023-02-13T10:25:57.555Z,42.70
2023-02-13T10:28:40.026Z,41.87
2023-02-13T10:31:13.417Z,36.83
2023-02-13T10:33:51.935Z,38.90
2023-02-13T10:36:24.857Z,41.50
2023-02-13T10:38:59.621Z,39.37
2023-02-13T10:41:44.304Z,42.13
2023-02-13T10:44:31.068Z,44.63
2023-02-13T10:47:11.169Z,40.83
2023-02-13T10:50:02.072Z,34.43
2023-02-13T10:52:45.267Z,44.90
2023-02-13T10:55:39.889Z,45.00
2023-02-13T10:58:14.539Z,34.27
2023-02-13T11:00:50.876Z,34.60
2023-02-13T11:03:22.092Z,31.37
2023-02-13T11:05:53.422Z,27.47
2023-02-13T11:08:25.282Z,29.90
2023-02-13T11:10:54.016Z,31.33
2023-02-13T11:13:25.572Z,28.00
2023-02-13T11:16:06.390Z,32.33
2023-02-13T11:18:36.494Z,27.87
2023-02-13T11:21:11.136Z,32.23
2023-02-13T11:23:46.513Z,32.10
2023-02-13T11:26:23.650Z,28.13
2023-02-13T11:28:56.379Z,28.93
2023-02-13T11:31:29.807Z,29.57
2023-02-13T11:33:59.225Z,30.60
2023-02-13T11:36:31.596Z,33.30
2023-02-13T11:39:01.804Z,25.63
2023-02-13T11:41:32.387Z,24.93
2023-02-13T11:44:04.422Z,29.73
2023-02-13T11:46:48.020Z,21.83
2023-02-13T11:49:23.121Z,23.60
2023-02-13T11:51:54.348Z,24.60
2023-02-13T11:54:26.998Z,26.37
2023-02-13T11:57:06.013Z,23.30
2023-02-13T11:59:42.371Z,22.77
2023-02-13T12:02:19.797Z,26.13
2023-02-13T12:04:53.423Z,26.53
2023-02-13T12:07:27.112Z,31.47
2023-02-13T12:10:02.665Z,23.13
2023-02-13T12:12:38.492Z,22.97
2023-02-13T12:15:20.280Z,21.23
2023-02-13T12:17:54.221Z,17.97
2023-02-13T12:20:22.736Z,21.23
2023-02-13T12:23:05.723Z,27.03
2023-02-13T12:25:49.249Z,22.40
2023-02-13T12:28:21.926Z,21.67
2023-02-13T12:31:35.123Z,19.93
2023-02-13T12:34:39.078Z,21.60
2023-02-13T12:37:27.158Z,18.47
2023-02-13T12:40:25.916Z,20.03
2023-02-13T12:43:17.315Z,15.57
2023-02-13T12:45:52.863Z,17.93
2023-02-13T12:48:36.652Z,17.50
2023-02-13T12:51:20.911Z,15.33
2023-02-13T12:54:16.486Z,16.43
2023-02-13T12:57:01.923Z,14.43
2023-02-13T12:59:43.588Z,13.57
2023-02-13T13:02:42.583Z,12.53
2023-02-13T13:05:27.543Z,12.97
2023-02-13T13:08:14.605Z,11.77
2023-02-13T13:11:10.577Z,14.57
2023-02-13T13:13:50.858Z,12.73
2023-02-13T13:16:28.624Z,13.67
2023-02-13T13:19:07.608Z,13.50
2023-02-13T13:21:49.360Z,13.23
2023-02-13T13:24:29.356Z,13.63
2023-02-13T13:27:03.830Z,11.47
2023-02-13T13:29:47.935Z,12.10
2023-02-13T13:32:20.076Z,12.40
2023-02-13T13:34:49.162Z,12.87
2023-02-13T13:37:31.462Z,12.23
2023-02-13T13:40:05.617Z,13.33
2023-02-13T13:42:42.826Z,13.77
2023-02-13T13:45:27.608Z,11.60
2023-02-13T13:48:20.830Z,14.03
2023-02-13T13:50:51.146Z,16.00
2023-02-13T13:53:25.919Z,14.63
2023-02-13T13:56:05.277Z,13.90
2023-02-13T13:58:41.147Z,12.83
2023-02-13T14:01:33.077Z,12.77
2023-02-13T14:04:05.095Z,16.43
2023-02-13T14:07:09.290Z,11.60
2023-02-13T14:09:41.786Z,14.17
2023-02-13T14:12:39.517Z,14.50
2023-02-13T14:15:46.589Z,14.80
2023-02-13T14:18:24.005Z,11.20
2023-02-13T14:20:55.233Z,16.30
2023-02-13T14:23:39.905Z,17.10
2023-02-13T14:26:36.924Z,13.73
2023-02-13T14:29:37.309Z,14.13
2023-02-13T14:32:22.037Z,14.10
2023-02-13T14:34:58.132Z,13.03
2023-02-13T14:37:35.503Z,16.40
2023-02-13T14:40:52.008Z,19.07
2023-02-13T14:43:32.499Z,17.80
2023-02-13T14:46:18.605Z,14.97
2023-02-13T14:48:53.944Z,18.70
2023-02-13T14:51:30.761Z,15.77
2023-02-13T14:54:04.920Z,16.75
2023-02-13T14:56:33.940Z,14.77
2023-02-13T14:59:12.560Z,21.53
2023-02-13T15:01:52.745Z,20.70
2023-02-13T15:04:28.180Z,15.57
2023-02-13T15:07:02.261Z,17.80
2023-02-13T15:09:39.124Z,24.27
2023-02-13T15:12:26.176Z,21.20
2023-02-13T15:14:54.329Z,33.53
2023-02-13T15:17:26.121Z,26.87
2023-02-13T15:19:57.416Z,23.50
2023-02-13T15:22:34.887Z,32.23
2023-02-13T15:25:03.710Z,26.73
2023-02-13T15:27:35.377Z,28.60
2023-02-13T15:30:19.325Z,25.83
2023-02-13T15:32:59.800Z,24.73
2023-02-13T15:35:31.240Z,34.80
2023-02-13T15:38:01.864Z,31.13
2023-02-13T15:40:32.008Z,28.17
2023-02-13T15:43:03.520Z,40.40
2023-02-13T15:45:33.560Z,31.27
2023-02-13T15:48:01.888Z,33.97
2023-02-13T15:50:34.244Z,34.60
2023-02-13T15:53:11.339Z,27.43
2023-02-13T15:55:39.565Z,38.53
2023-02-13T15:58:14.308Z,41.80
2023-02-13T16:00:44.152Z,35.83
2023-02-13T16:03:19.149Z,45.53
2023-02-13T16:05:50.310Z,33.10
2023-02-13T16:08:47.195Z,33.57
2023-02-13T16:11:28.932Z,34.47
2023-02-13T16:14:06.574Z,38.80
2023-02-13T16:16:43.133Z,40.17
2023-02-13T16:19:38.741Z,48.70
2023-02-13T16:22:23.186Z,49.13
2023-02-13T16:24:57.393Z,39.37
2023-02-13T16:27:29.404Z,43.13
2023-02-13T16:30:00.343Z,42.83
2023-02-13T16:32:32.448Z,47.30
2023-02-13T16:35:19.283Z,48.03
2023-02-13T16:37:53.717Z,43.83
2023-02-13T16:40:41.116Z,44.63
2023-02-13T16:43:41.725Z,50.90
2023-02-13T16:46:41.215Z,48.83
2023-02-13T16:49:19.633Z,37.97
2023-02-13T16:51:56.979Z,54.33
2023-02-13T16:54:39.507Z,67.00
2023-02-13T16:57:24.268Z,71.00
2023-02-13T17:00:09.351Z,79.30
2023-02-13T17:02:41.111Z,71.73
2023-02-13T17:05:22.974Z,57.40
2023-02-13T17:07:54.761Z,50.97
2023-02-13T17:10:29.547Z,49.90
2023-02-13T17:13:03.167Z,66.43
2023-02-13T17:15:35.479Z,74.70
2023-02-13T17:18:03.906Z,69.07
2023-02-13T17:20:34.653Z,71.87
2023-02-13T17:23:06.306Z,62.50
2023-02-13T17:25:36.957Z,40.23
2023-02-13T17:28:14.980Z,42.20
2023-02-13T17:30:45.865Z,54.33
2023-02-13T17:33:18.793Z,43.63
2023-02-13T17:35:48.228Z,42.77
2023-02-13T17:38:17.540Z,38.50
2023-02-13T17:40:47.500Z,35.07
2023-02-13T17:43:21.038Z,32.13
2023-02-13T17:45:50.234Z,32.70
2023-02-13T17:48:18.481Z,29.77
2023-02-13T17:50:46.829Z,30.17
2023-02-13T17:53:22.210Z,30.87
2023-02-13T17:55:51.203Z,29.83
2023-02-13T17:58:21.690Z,32.37
2023-02-13T18:00:52.777Z,29.37
2023-02-13T18:03:24.177Z,34.97
2023-02-13T18:05:53.879Z,35.43
2023-02-13T18:08:23.801Z,32.43
2023-02-13T18:10:52.612Z,29.33
2023-02-13T18:13:22.581Z,31.53
2023-02-13T18:15:51.431Z,28.53
2023-02-13T18:18:20.688Z,28.47
2023-02-13T18:20:57.287Z,30.37
2023-02-13T18:23:26.453Z,33.80
2023-02-13T18:25:54.925Z,26.80
2023-02-13T18:28:24.905Z,25.80
2023-02-13T18:30:53.422Z,28.93
2023-02-13T18:33:24.380Z,26.63
2023-02-13T18:35:53.486Z,29.57
2023-02-13T18:38:22.683Z,26.33
2023-02-13T18:40:51.536Z,26.13
2023-02-13T18:43:19.903Z,29.87
2023-02-13T18:45:51.210Z,31.80
2023-02-13T18:48:21.403Z,32.27
2023-02-13T18:50:50.691Z,28.43
2023-02-13T18:53:22.496Z,30.47
2023-02-13T18:55:51.206Z,23.43
2023-02-13T18:58:22.202Z,26.57
2023-02-13T19:00:51.761Z,27.53
2023-02-13T19:03:21.019Z,26.93
2023-02-13T19:05:49.745Z,31.33
2023-02-13T19:08:18.482Z,23.03
2023-02-13T19:11:05.542Z,27.87
2023-02-13T19:13:35.907Z,24.77
2023-02-13T19:16:16.070Z,28.00
2023-02-13T19:18:52.107Z,33.30
2023-02-13T19:21:24.014Z,31.83
2023-02-13T19:23:53.640Z,24.33
2023-02-13T19:26:24.312Z,30.17
2023-02-13T19:28:53.609Z,26.40
2023-02-13T19:31:25.974Z,30.00
2023-02-13T19:33:55.586Z,28.27
2023-02-13T19:36:27.768Z,26.93
2023-02-13T19:38:58.885Z,27.57
2023-02-13T19:41:30.126Z,28.30
2023-02-13T19:43:58.681Z,26.27
2023-02-13T19:46:30.998Z,30.70
2023-02-13T19:49:00.526Z,28.73
2023-02-13T19:51:33.424Z,27.60
2023-02-13T19:54:06.326Z,25.20
2023-02-13T19:56:37.189Z,31.20
2023-02-13T19:59:21.177Z,30.60
2023-02-13T20:01:53.355Z,29.97
2023-02-13T20:04:21.896Z,28.33
2023-02-13T20:06:57.988Z,26.83
2023-02-13T20:09:28.224Z,27.57
2023-02-13T20:11:56.434Z,32.27
2023-02-13T20:14:24.750Z,29.63
2023-02-13T20:16:54.504Z,28.63
2023-02-13T20:19:23.709Z,28.87
2023-02-13T20:21:52.445Z,24.60
2023-02-13T20:24:20.989Z,25.63
2023-02-13T20:26:50.754Z,25.23
2023-02-13T20:29:18.920Z,25.30
2023-02-13T20:31:47.872Z,24.27
2023-02-13T20:34:18.252Z,28.97
2023-02-13T20:36:46.475Z,27.67
2023-02-13T20:39:14.964Z,28.70
2023-02-13T20:41:48.658Z,28.73
2023-02-13T20:44:17.570Z,28.13
2023-02-13T20:46:45.925Z,29.40
2023-02-13T20:49:22.231Z,29.93
2023-02-13T20:51:52.290Z,27.57
2023-02-13T20:54:20.981Z,23.23
2023-02-13T20:56:49.613Z,27.40
2023-02-13T20:59:18.047Z,31.60
2023-02-13T21:01:49.835Z,30.03
2023-02-13T21:04:20.238Z,28.93
2023-02-13T21:06:50.619Z,32.60
2023-02-13T21:09:20.368Z,25.30
2023-02-13T21:11:49.402Z,27.33
2023-02-13T21:14:17.482Z,29.80
2023-02-13T21:16:45.781Z,24.53
2023-02-13T21:19:17.372Z,27.03
2023-02-13T21:21:46.783Z,29.03
2023-02-13T21:24:17.056Z,25.20
2023-02-13T21:26:47.721Z,26.03
2023-02-13T21:29:16.087Z,25.30
2023-02-13T21:31:48.833Z,23.80
2023-02-13T21:34:19.297Z,26.80
2023-02-13T21:36:48.151Z,28.00
2023-02-13T21:39:17.401Z,27.80
2023-02-13T21:41:49.153Z,29.47
2023-02-13T21:44:18.358Z,28.60
2023-02-13T21:46:47.034Z,29.70
2023-02-13T21:49:17.320Z,27.47
2023-02-13T21:51:46.045Z,24.70
2023-02-13T21:54:14.898Z,26.03
2023-02-13T21:56:44.808Z,29.90
2023-02-13T21:59:16.801Z,33.20
2023-02-13T22:01:46.620Z,32.30
2023-02-13T22:04:15.585Z,30.07
2023-02-13T22:06:44.112Z,24.53
2023-02-13T22:09:19.275Z,25.37
2023-02-13T22:11:47.733Z,27.40
2023-02-13T22:14:19.230Z,26.90
2023-02-13T22:16:47.831Z,27.73
2023-02-13T22:19:17.512Z,26.47
2023-02-13T22:21:46.510Z,26.27
2023-02-13T22:24:14.759Z,29.73
2023-02-13T22:26:47.750Z,28.77
2023-02-13T22:29:23.910Z,28.73
2023-02-13T22:31:52.488Z,27.70
2023-02-13T22:34:20.964Z,29.30
2023-02-13T22:36:49.457Z,27.10
2023-02-13T22:39:17.618Z,26.07
2023-02-13T22:41:45.979Z,30.23
2023-02-13T22:44:14.582Z,26.87
2023-02-13T22:46:45.676Z,24.97
2023-02-13T22:49:13.966Z,25.40
2023-02-13T22:51:42.824Z,25.77
2023-02-13T22:54:11.988Z,26.97
2023-02-13T22:56:40.186Z,23.63
2023-02-13T22:59:08.400Z,26.90
2023-02-13T23:01:37.372Z,23.87
2023-02-13T23:04:07.249Z,23.87
2023-02-13T23:06:35.696Z,24.43
2023-02-13T23:09:03.857Z,25.90
2023-02-13T23:11:49.504Z,24.03
2023-02-13T23:14:17.743Z,27.67
2023-02-13T23:17:03.577Z,26.90
2023-02-13T23:19:33.360Z,24.30
2023-02-13T23:22:01.927Z,26.73
2023-02-13T23:24:31.274Z,27.90
2023-02-13T23:26:59.679Z,23.83
2023-02-13T23:29:28.195Z,28.33
2023-02-13T23:31:56.388Z,26.03
2023-02-13T23:34:24.716Z,27.07
2023-02-13T23:36:54.693Z,24.53
2023-02-13T23:39:24.429Z,23.93
2023-02-13T23:41:52.777Z,27.13
2023-02-13T23:44:21.700Z,31.57
2023-02-13T23:46:50.270Z,26.53
2023-02-13T23:49:18.738Z,27.83
2023-02-13T23:51:46.923Z,25.73
2023-02-13T23:54:22.204Z,27.17
2023-02-13T23:56:51.460Z,25.40
2023-02-13T23:59:20.551Z,27.67
